sensor_id;sensor_type;location;lat;lon;timestamp;P1;durP1;ratioP1;P2;durP2;ratioP2
6135;SDS011;24008;42.664;23.372;2024-03-29T00:01:03;0.80;;;0.50;;
6135;SDS011;24008;42.664;23.372;2024-03-29T00:03:29;4.57;;;0.80;;
6135;SDS011;24008;42.664;23.372;2024-03-29T00:05:54;2.10;;;0.80;;
6135;SDS011;24008;42.664;23.372;2024-03-29T00:08:20;2.00;;;1.00;;
6135;SDS011;24008;42.664;23.372;2024-03-29T00:10:46;3.33;;;1.07;;
6135;SDS011;24008;42.664;23.372;2024-03-29T00:13:12;1.73;;;0.90;;
6135;SDS011;24008;42.664;23.372;2024-03-29T00:15:38;3.03;;;1.00;;
6135;SDS011;24008;42.664;23.372;2024-03-29T00:18:06;1.73;;;1.10;;
6135;SDS011;24008;42.664;23.372;2024-03-29T00:20:32;1.00;;;0.70;;
6135;SDS011;24008;42.664;23.372;2024-03-29T00:22:58;3.13;;;1.00;;
6135;SDS011;24008;42.664;23.372;2024-03-29T00:25:24;1.63;;;0.90;;
6135;SDS011;24008;42.664;23.372;2024-03-29T00:27:49;1.73;;;0.90;;
6135;SDS011;24008;42.664;23.372;2024-03-29T00:30:15;2.23;;;0.93;;
6135;SDS011;24008;42.664;23.372;2024-03-29T00:32:41;0.97;;;0.67;;
6135;SDS011;24008;42.664;23.372;2024-03-29T00:35:08;2.00;;;0.70;;
6135;SDS011;24008;42.664;23.372;2024-03-29T00:37:34;3.33;;;1.20;;
6135;SDS011;24008;42.664;23.372;2024-03-29T00:40:00;1.73;;;0.93;;
6135;SDS011;24008;42.664;23.372;2024-03-29T00:42:26;2.13;;;0.97;;
6135;SDS011;24008;42.664;23.372;2024-03-29T00:44:51;2.00;;;1.00;;
6135;SDS011;24008;42.664;23.372;2024-03-29T00:47:17;1.13;;;0.77;;
6135;SDS011;24008;42.664;23.372;2024-03-29T00:49:43;1.80;;;1.10;;
6135;SDS011;24008;42.664;23.372;2024-03-29T00:52:10;1.63;;;0.80;;
6135;SDS011;24008;42.664;23.372;2024-03-29T00:54:36;2.13;;;0.80;;
6135;SDS011;24008;42.664;23.372;2024-03-29T00:57:02;1.73;;;0.80;;
6135;SDS011;24008;42.664;23.372;2024-03-29T00:59:28;1.93;;;0.70;;
6135;SDS011;24008;42.664;23.372;2024-03-29T01:01:53;1.13;;;0.80;;
6135;SDS011;24008;42.664;23.372;2024-03-29T01:04:19;1.70;;;0.80;;
6135;SDS011;24008;42.664;23.372;2024-03-29T01:06:45;2.53;;;0.93;;
6135;SDS011;24008;42.664;23.372;2024-03-29T01:09:12;2.13;;;0.90;;
6135;SDS011;24008;42.664;23.372;2024-03-29T01:11:38;0.97;;;0.70;;
6135;SDS011;24008;42.664;23.372;2024-03-29T01:14:04;0.73;;;0.60;;
6135;SDS011;24008;42.664;23.372;2024-03-29T01:16:30;1.10;;;0.80;;
6135;SDS011;24008;42.664;23.372;2024-03-29T01:18:56;0.60;;;0.60;;
6135;SDS011;24008;42.664;23.372;2024-03-29T01:21:22;2.70;;;0.90;;
6135;SDS011;24008;42.664;23.372;2024-03-29T01:23:48;2.57;;;1.20;;
6135;SDS011;24008;42.664;23.372;2024-03-29T01:26:16;1.87;;;0.77;;
6135;SDS011;24008;42.664;23.372;2024-03-29T01:28:42;1.00;;;0.80;;
6135;SDS011;24008;42.664;23.372;2024-03-29T01:31:08;2.03;;;0.90;;
6135;SDS011;24008;42.664;23.372;2024-03-29T01:33:34;2.03;;;0.90;;
6135;SDS011;24008;42.664;23.372;2024-03-29T01:35:59;1.97;;;0.90;;
6135;SDS011;24008;42.664;23.372;2024-03-29T01:38:25;0.90;;;0.70;;
6135;SDS011;24008;42.664;23.372;2024-03-29T01:40:51;1.67;;;0.83;;
6135;SDS011;24008;42.664;23.372;2024-03-29T01:43:18;3.43;;;0.80;;
6135;SDS011;24008;42.664;23.372;2024-03-29T01:45:46;1.53;;;0.90;;
6135;SDS011;24008;42.664;23.372;2024-03-29T01:48:14;3.17;;;1.13;;
6135;SDS011;24008;42.664;23.372;2024-03-29T01:50:42;2.57;;;0.97;;
6135;SDS011;24008;42.664;23.372;2024-03-29T01:53:09;2.20;;;0.80;;
6135;SDS011;24008;42.664;23.372;2024-03-29T01:55:37;1.27;;;0.73;;
6135;SDS011;24008;42.664;23.372;2024-03-29T01:58:04;1.00;;;0.70;;
6135;SDS011;24008;42.664;23.372;2024-03-29T02:00:33;1.47;;;0.90;;
6135;SDS011;24008;42.664;23.372;2024-03-29T02:03:04;2.70;;;1.07;;
6135;SDS011;24008;42.664;23.372;2024-03-29T02:05:34;1.90;;;0.83;;
6135;SDS011;24008;42.664;23.372;2024-03-29T02:08:02;2.83;;;0.83;;
6135;SDS011;24008;42.664;23.372;2024-03-29T02:10:30;2.57;;;1.00;;
6135;SDS011;24008;42.664;23.372;2024-03-29T02:12:56;2.40;;;1.00;;
6135;SDS011;24008;42.664;23.372;2024-03-29T02:15:23;5.47;;;0.90;;
6135;SDS011;24008;42.664;23.372;2024-03-29T02:17:51;1.17;;;0.70;;
6135;SDS011;24008;42.664;23.372;2024-03-29T02:20:18;5.00;;;1.10;;
6135;SDS011;24008;42.664;23.372;2024-03-29T02:22:46;2.73;;;0.90;;
6135;SDS011;24008;42.664;23.372;2024-03-29T02:25:21;2.73;;;1.30;;
6135;SDS011;24008;42.664;23.372;2024-03-29T02:27:48;1.40;;;0.90;;
6135;SDS011;24008;42.664;23.372;2024-03-29T02:30:15;2.77;;;0.87;;
6135;SDS011;24008;42.664;23.372;2024-03-29T02:32:42;3.50;;;1.27;;
6135;SDS011;24008;42.664;23.372;2024-03-29T02:35:09;1.73;;;1.00;;
6135;SDS011;24008;42.664;23.372;2024-03-29T02:37:36;1.43;;;0.90;;
6135;SDS011;24008;42.664;23.372;2024-03-29T02:40:03;2.03;;;1.10;;
6135;SDS011;24008;42.664;23.372;2024-03-29T02:42:32;1.87;;;1.00;;
6135;SDS011;24008;42.664;23.372;2024-03-29T02:44:59;2.70;;;0.97;;
6135;SDS011;24008;42.664;23.372;2024-03-29T02:47:26;2.47;;;1.10;;
6135;SDS011;24008;42.664;23.372;2024-03-29T02:49:51;2.03;;;1.07;;
6135;SDS011;24008;42.664;23.372;2024-03-29T02:52:18;4.70;;;1.10;;
6135;SDS011;24008;42.664;23.372;2024-03-29T02:54:44;1.73;;;1.03;;
6135;SDS011;24008;42.664;23.372;2024-03-29T02:57:11;2.10;;;1.37;;
6135;SDS011;24008;42.664;23.372;2024-03-29T02:59:38;2.93;;;1.30;;
6135;SDS011;24008;42.664;23.372;2024-03-29T03:02:05;2.43;;;1.53;;
6135;SDS011;24008;42.664;23.372;2024-03-29T03:04:31;2.00;;;1.17;;
6135;SDS011;24008;42.664;23.372;2024-03-29T03:06:58;2.17;;;1.63;;
6135;SDS011;24008;42.664;23.372;2024-03-29T03:09:44;1.30;;;0.90;;
6135;SDS011;24008;42.664;23.372;2024-03-29T03:12:30;2.00;;;1.07;;
6135;SDS011;24008;42.664;23.372;2024-03-29T03:14:59;2.10;;;1.03;;
6135;SDS011;24008;42.664;23.372;2024-03-29T03:17:26;4.17;;;1.40;;
6135;SDS011;24008;42.664;23.372;2024-03-29T03:19:53;1.97;;;1.20;;
6135;SDS011;24008;42.664;23.372;2024-03-29T03:22:18;1.80;;;1.23;;
6135;SDS011;24008;42.664;23.372;2024-03-29T03:24:45;3.60;;;1.20;;
6135;SDS011;24008;42.664;23.372;2024-03-29T03:27:11;1.83;;;1.00;;
6135;SDS011;24008;42.664;23.372;2024-03-29T03:29:38;1.63;;;0.90;;
6135;SDS011;24008;42.664;23.372;2024-03-29T03:32:06;2.07;;;0.80;;
6135;SDS011;24008;42.664;23.372;2024-03-29T03:34:33;2.27;;;0.80;;
6135;SDS011;24008;42.664;23.372;2024-03-29T03:36:59;6.10;;;1.03;;
6135;SDS011;24008;42.664;23.372;2024-03-29T03:39:25;1.63;;;0.80;;
6135;SDS011;24008;42.664;23.372;2024-03-29T03:41:51;1.20;;;0.80;;
6135;SDS011;24008;42.664;23.372;2024-03-29T03:44:18;2.67;;;0.70;;
6135;SDS011;24008;42.664;23.372;2024-03-29T03:46:44;4.80;;;1.20;;
6135;SDS011;24008;42.664;23.372;2024-03-29T03:49:12;1.23;;;1.10;;
6135;SDS011;24008;42.664;23.372;2024-03-29T03:51:38;2.53;;;1.20;;
6135;SDS011;24008;42.664;23.372;2024-03-29T03:54:05;1.63;;;1.00;;
6135;SDS011;24008;42.664;23.372;2024-03-29T03:56:30;2.47;;;1.23;;
6135;SDS011;24008;42.664;23.372;2024-03-29T03:58:57;1.67;;;1.00;;
6135;SDS011;24008;42.664;23.372;2024-03-29T04:01:23;1.70;;;1.20;;
6135;SDS011;24008;42.664;23.372;2024-03-29T04:03:50;2.60;;;1.30;;
6135;SDS011;24008;42.664;23.372;2024-03-29T04:06:17;3.07;;;1.70;;
6135;SDS011;24008;42.664;23.372;2024-03-29T04:08:43;2.23;;;1.20;;
6135;SDS011;24008;42.664;23.372;2024-03-29T04:11:10;3.33;;;1.33;;
6135;SDS011;24008;42.664;23.372;2024-03-29T04:13:37;2.70;;;1.20;;
6135;SDS011;24008;42.664;23.372;2024-03-29T04:16:04;2.20;;;0.93;;
6135;SDS011;24008;42.664;23.372;2024-03-29T04:18:32;3.03;;;1.03;;
6135;SDS011;24008;42.664;23.372;2024-03-29T04:20:58;1.57;;;1.00;;
6135;SDS011;24008;42.664;23.372;2024-03-29T04:23:26;2.37;;;0.90;;
6135;SDS011;24008;42.664;23.372;2024-03-29T04:25:53;2.63;;;1.10;;
6135;SDS011;24008;42.664;23.372;2024-03-29T04:28:19;1.10;;;0.90;;
6135;SDS011;24008;42.664;23.372;2024-03-29T04:30:50;1.37;;;0.93;;
6135;SDS011;24008;42.664;23.372;2024-03-29T04:33:17;2.03;;;1.30;;
6135;SDS011;24008;42.664;23.372;2024-03-29T04:35:51;4.80;;;1.87;;
6135;SDS011;24008;42.664;23.372;2024-03-29T04:38:18;2.97;;;1.20;;
6135;SDS011;24008;42.664;23.372;2024-03-29T04:40:46;1.47;;;0.93;;
6135;SDS011;24008;42.664;23.372;2024-03-29T04:43:13;3.70;;;1.07;;
6135;SDS011;24008;42.664;23.372;2024-03-29T04:45:39;7.47;;;4.37;;
6135;SDS011;24008;42.664;23.372;2024-03-29T04:48:06;2.30;;;1.30;;
6135;SDS011;24008;42.664;23.372;2024-03-29T04:50:33;2.57;;;1.10;;
6135;SDS011;24008;42.664;23.372;2024-03-29T04:53:00;2.67;;;1.00;;
6135;SDS011;24008;42.664;23.372;2024-03-29T04:55:27;2.43;;;1.00;;
6135;SDS011;24008;42.664;23.372;2024-03-29T04:57:55;2.50;;;1.23;;
6135;SDS011;24008;42.664;23.372;2024-03-29T05:00:22;2.50;;;1.30;;
6135;SDS011;24008;42.664;23.372;2024-03-29T05:02:49;2.17;;;1.53;;
6135;SDS011;24008;42.664;23.372;2024-03-29T05:05:15;2.03;;;1.20;;
6135;SDS011;24008;42.664;23.372;2024-03-29T05:07:42;2.27;;;1.40;;
6135;SDS011;24008;42.664;23.372;2024-03-29T05:10:09;2.00;;;1.17;;
6135;SDS011;24008;42.664;23.372;2024-03-29T05:12:36;1.80;;;1.20;;
6135;SDS011;24008;42.664;23.372;2024-03-29T05:15:05;2.27;;;1.07;;
6135;SDS011;24008;42.664;23.372;2024-03-29T05:17:32;1.60;;;0.97;;
6135;SDS011;24008;42.664;23.372;2024-03-29T05:19:59;2.13;;;0.93;;
6135;SDS011;24008;42.664;23.372;2024-03-29T05:22:26;3.87;;;0.93;;
6135;SDS011;24008;42.664;23.372;2024-03-29T05:24:52;0.80;;;0.80;;
6135;SDS011;24008;42.664;23.372;2024-03-29T05:27:20;3.07;;;1.10;;
6135;SDS011;24008;42.664;23.372;2024-03-29T05:29:46;1.20;;;0.80;;
6135;SDS011;24008;42.664;23.372;2024-03-29T05:32:15;2.40;;;0.90;;
6135;SDS011;24008;42.664;23.372;2024-03-29T05:34:41;1.87;;;0.73;;
6135;SDS011;24008;42.664;23.372;2024-03-29T05:37:08;2.90;;;1.23;;
6135;SDS011;24008;42.664;23.372;2024-03-29T05:39:35;2.83;;;1.40;;
6135;SDS011;24008;42.664;23.372;2024-03-29T05:42:01;1.80;;;1.30;;
6135;SDS011;24008;42.664;23.372;2024-03-29T05:44:28;3.73;;;1.20;;
6135;SDS011;24008;42.664;23.372;2024-03-29T05:46:55;2.43;;;1.33;;
6135;SDS011;24008;42.664;23.372;2024-03-29T05:49:22;4.23;;;1.60;;
6135;SDS011;24008;42.664;23.372;2024-03-29T05:51:48;6.43;;;1.75;;
6135;SDS011;24008;42.664;23.372;2024-03-29T05:54:17;2.25;;;1.27;;
6135;SDS011;24008;42.664;23.372;2024-03-29T05:56:44;2.60;;;1.65;;
6135;SDS011;24008;42.664;23.372;2024-03-29T05:59:10;3.40;;;1.40;;
6135;SDS011;24008;42.664;23.372;2024-03-29T06:01:38;4.10;;;1.70;;
6135;SDS011;24008;42.664;23.372;2024-03-29T06:04:05;4.53;;;1.38;;
6135;SDS011;24008;42.664;23.372;2024-03-29T06:06:41;2.72;;;1.38;;
6135;SDS011;24008;42.664;23.372;2024-03-29T06:09:08;3.22;;;1.42;;
6135;SDS011;24008;42.664;23.372;2024-03-29T06:11:35;5.18;;;1.45;;
6135;SDS011;24008;42.664;23.372;2024-03-29T06:14:02;2.85;;;1.40;;
6135;SDS011;24008;42.664;23.372;2024-03-29T06:16:46;6.85;;;1.55;;
6135;SDS011;24008;42.664;23.372;2024-03-29T06:19:30;2.58;;;1.05;;
6135;SDS011;24008;42.664;23.372;2024-03-29T06:21:58;4.30;;;1.23;;
6135;SDS011;24008;42.664;23.372;2024-03-29T06:24:24;1.70;;;1.05;;
6135;SDS011;24008;42.664;23.372;2024-03-29T06:26:51;2.00;;;0.98;;
6135;SDS011;24008;42.664;23.372;2024-03-29T06:29:18;2.53;;;0.95;;
6135;SDS011;24008;42.664;23.372;2024-03-29T06:31:44;2.55;;;0.95;;
6135;SDS011;24008;42.664;23.372;2024-03-29T06:34:11;1.73;;;0.82;;
6135;SDS011;24008;42.664;23.372;2024-03-29T06:36:38;2.25;;;0.80;;
6135;SDS011;24008;42.664;23.372;2024-03-29T06:39:06;3.13;;;1.20;;
6135;SDS011;24008;42.664;23.372;2024-03-29T06:41:33;3.92;;;1.20;;
6135;SDS011;24008;42.664;23.372;2024-03-29T06:44:00;3.17;;;0.95;;
6135;SDS011;24008;42.664;23.372;2024-03-29T06:46:27;1.67;;;0.73;;
6135;SDS011;24008;42.664;23.372;2024-03-29T06:48:54;3.20;;;1.25;;
6135;SDS011;24008;42.664;23.372;2024-03-29T06:51:20;1.50;;;0.75;;
6135;SDS011;24008;42.664;23.372;2024-03-29T06:53:47;3.63;;;1.17;;
6135;SDS011;24008;42.664;23.372;2024-03-29T06:56:15;4.28;;;1.45;;
6135;SDS011;24008;42.664;23.372;2024-03-29T06:58:42;1.90;;;1.00;;
6135;SDS011;24008;42.664;23.372;2024-03-29T07:01:09;4.05;;;0.95;;
6135;SDS011;24008;42.664;23.372;2024-03-29T07:03:36;2.20;;;0.80;;
6135;SDS011;24008;42.664;23.372;2024-03-29T07:06:03;2.80;;;0.85;;
6135;SDS011;24008;42.664;23.372;2024-03-29T07:08:30;2.05;;;0.90;;
6135;SDS011;24008;42.664;23.372;2024-03-29T07:10:57;1.45;;;0.70;;
6135;SDS011;24008;42.664;23.372;2024-03-29T07:13:27;1.27;;;0.52;;
6135;SDS011;24008;42.664;23.372;2024-03-29T07:15:55;1.92;;;0.60;;
6135;SDS011;24008;42.664;23.372;2024-03-29T07:18:22;1.30;;;0.50;;
6135;SDS011;24008;42.664;23.372;2024-03-29T07:20:49;1.20;;;0.47;;
6135;SDS011;24008;42.664;23.372;2024-03-29T07:23:15;2.22;;;0.65;;
6135;SDS011;24008;42.664;23.372;2024-03-29T07:25:43;2.22;;;0.50;;
6135;SDS011;24008;42.664;23.372;2024-03-29T07:28:10;1.02;;;0.50;;
6135;SDS011;24008;42.664;23.372;2024-03-29T07:30:41;1.80;;;0.60;;
6135;SDS011;24008;42.664;23.372;2024-03-29T07:33:09;1.27;;;0.50;;
6135;SDS011;24008;42.664;23.372;2024-03-29T07:35:36;1.05;;;0.40;;
6135;SDS011;24008;42.664;23.372;2024-03-29T07:38:06;1.23;;;0.52;;
6135;SDS011;24008;42.664;23.372;2024-03-29T07:40:33;0.70;;;0.40;;
6135;SDS011;24008;42.664;23.372;2024-03-29T07:43:00;0.95;;;0.47;;
6135;SDS011;24008;42.664;23.372;2024-03-29T07:45:28;2.03;;;0.60;;
6135;SDS011;24008;42.664;23.372;2024-03-29T07:47:56;1.30;;;0.60;;
6135;SDS011;24008;42.664;23.372;2024-03-29T07:50:23;0.93;;;0.52;;
6135;SDS011;24008;42.664;23.372;2024-03-29T07:52:50;1.17;;;0.50;;
6135;SDS011;24008;42.664;23.372;2024-03-29T07:55:17;1.13;;;0.40;;
6135;SDS011;24008;42.664;23.372;2024-03-29T07:57:44;1.15;;;0.40;;
6135;SDS011;24008;42.664;23.372;2024-03-29T08:00:12;1.92;;;0.50;;
6135;SDS011;24008;42.664;23.372;2024-03-29T08:02:38;1.80;;;0.55;;
6135;SDS011;24008;42.664;23.372;2024-03-29T08:05:07;2.17;;;0.63;;
6135;SDS011;24008;42.664;23.372;2024-03-29T08:07:34;1.60;;;0.52;;
6135;SDS011;24008;42.664;23.372;2024-03-29T08:10:00;1.23;;;0.50;;
6135;SDS011;24008;42.664;23.372;2024-03-29T08:12:27;0.98;;;0.40;;
6135;SDS011;24008;42.664;23.372;2024-03-29T08:14:54;0.85;;;0.50;;
6135;SDS011;24008;42.664;23.372;2024-03-29T08:17:21;1.42;;;0.50;;
6135;SDS011;24008;42.664;23.372;2024-03-29T08:19:48;4.10;;;0.85;;
6135;SDS011;24008;42.664;23.372;2024-03-29T08:22:16;1.02;;;0.30;;
6135;SDS011;24008;42.664;23.372;2024-03-29T08:24:42;1.63;;;0.50;;
6135;SDS011;24008;42.664;23.372;2024-03-29T08:27:10;0.70;;;0.55;;
6135;SDS011;24008;42.664;23.372;2024-03-29T08:29:36;1.83;;;0.50;;
6135;SDS011;24008;42.664;23.372;2024-03-29T08:32:03;1.25;;;0.40;;
6135;SDS011;24008;42.664;23.372;2024-03-29T08:34:31;0.73;;;0.43;;
6135;SDS011;24008;42.664;23.372;2024-03-29T08:37:00;0.73;;;0.40;;
6135;SDS011;24008;42.664;23.372;2024-03-29T08:39:29;1.90;;;0.60;;
6135;SDS011;24008;42.664;23.372;2024-03-29T08:41:56;1.75;;;0.57;;
6135;SDS011;24008;42.664;23.372;2024-03-29T08:44:23;1.08;;;0.40;;
6135;SDS011;24008;42.664;23.372;2024-03-29T08:46:50;2.30;;;0.60;;
6135;SDS011;24008;42.664;23.372;2024-03-29T08:49:18;1.25;;;0.50;;
6135;SDS011;24008;42.664;23.372;2024-03-29T08:51:45;2.97;;;0.47;;
6135;SDS011;24008;42.664;23.372;2024-03-29T08:54:12;1.80;;;0.50;;
6135;SDS011;24008;42.664;23.372;2024-03-29T08:56:40;1.30;;;0.30;;
6135;SDS011;24008;42.664;23.372;2024-03-29T08:59:06;0.95;;;0.40;;
6135;SDS011;24008;42.664;23.372;2024-03-29T09:01:35;1.42;;;0.50;;
6135;SDS011;24008;42.664;23.372;2024-03-29T09:04:03;1.30;;;0.47;;
6135;SDS011;24008;42.664;23.372;2024-03-29T09:06:33;1.42;;;0.40;;
6135;SDS011;24008;42.664;23.372;2024-03-29T09:09:00;2.28;;;0.50;;
6135;SDS011;24008;42.664;23.372;2024-03-29T09:11:28;0.95;;;0.50;;
6135;SDS011;24008;42.664;23.372;2024-03-29T09:13:56;2.08;;;0.63;;
6135;SDS011;24008;42.664;23.372;2024-03-29T09:16:23;1.92;;;0.88;;
6135;SDS011;24008;42.664;23.372;2024-03-29T09:18:50;1.17;;;0.40;;
6135;SDS011;24008;42.664;23.372;2024-03-29T09:21:17;1.15;;;0.40;;
6135;SDS011;24008;42.664;23.372;2024-03-29T09:23:45;2.30;;;0.47;;
6135;SDS011;24008;42.664;23.372;2024-03-29T09:26:13;0.57;;;0.35;;
6135;SDS011;24008;42.664;23.372;2024-03-29T09:28:40;1.30;;;0.45;;
6135;SDS011;24008;42.664;23.372;2024-03-29T09:31:09;1.08;;;0.40;;
6135;SDS011;24008;42.664;23.372;2024-03-29T09:33:36;0.70;;;0.40;;
6135;SDS011;24008;42.664;23.372;2024-03-29T09:36:02;1.73;;;0.60;;
6135;SDS011;24008;42.664;23.372;2024-03-29T09:38:29;1.20;;;0.40;;
6135;SDS011;24008;42.664;23.372;2024-03-29T09:40:58;2.80;;;0.68;;
6135;SDS011;24008;42.664;23.372;2024-03-29T09:43:36;1.13;;;0.47;;
6135;SDS011;24008;42.664;23.372;2024-03-29T09:46:04;1.48;;;0.30;;
6135;SDS011;24008;42.664;23.372;2024-03-29T09:48:33;1.15;;;0.50;;
6135;SDS011;24008;42.664;23.372;2024-03-29T09:51:03;0.80;;;0.32;;
6135;SDS011;24008;42.664;23.372;2024-03-29T09:53:32;1.15;;;0.40;;
6135;SDS011;24008;42.664;23.372;2024-03-29T09:56:01;0.68;;;0.40;;
6135;SDS011;24008;42.664;23.372;2024-03-29T09:58:30;1.55;;;0.40;;
6135;SDS011;24008;42.664;23.372;2024-03-29T10:00:57;1.45;;;0.47;;
6135;SDS011;24008;42.664;23.372;2024-03-29T10:03:24;2.03;;;0.55;;
6135;SDS011;24008;42.664;23.372;2024-03-29T10:05:56;2.40;;;0.50;;
6135;SDS011;24008;42.664;23.372;2024-03-29T10:08:24;1.30;;;0.55;;
6135;SDS011;24008;42.664;23.372;2024-03-29T10:10:52;2.10;;;0.52;;
6135;SDS011;24008;42.664;23.372;2024-03-29T10:13:20;1.27;;;0.43;;
6135;SDS011;24008;42.664;23.372;2024-03-29T10:15:48;1.33;;;0.63;;
6135;SDS011;24008;42.664;23.372;2024-03-29T10:18:17;1.73;;;0.40;;
6135;SDS011;24008;42.664;23.372;2024-03-29T10:20:45;1.25;;;0.65;;
6135;SDS011;24008;42.664;23.372;2024-03-29T10:23:13;1.65;;;0.63;;
6135;SDS011;24008;42.664;23.372;2024-03-29T10:25:42;2.45;;;0.50;;
6135;SDS011;24008;42.664;23.372;2024-03-29T10:28:09;1.23;;;0.57;;
6135;SDS011;24008;42.664;23.372;2024-03-29T10:30:37;1.77;;;0.50;;
6135;SDS011;24008;42.664;23.372;2024-03-29T10:33:04;2.30;;;0.65;;
6135;SDS011;24008;42.664;23.372;2024-03-29T10:35:31;2.15;;;0.70;;
6135;SDS011;24008;42.664;23.372;2024-03-29T10:37:58;1.48;;;0.73;;
6135;SDS011;24008;42.664;23.372;2024-03-29T10:40:29;1.95;;;0.60;;
6135;SDS011;24008;42.664;23.372;2024-03-29T10:42:57;0.80;;;0.40;;
6135;SDS011;24008;42.664;23.372;2024-03-29T10:45:25;2.28;;;0.40;;
6135;SDS011;24008;42.664;23.372;2024-03-29T10:47:54;1.25;;;0.45;;
6135;SDS011;24008;42.664;23.372;2024-03-29T10:50:22;1.20;;;0.38;;
6135;SDS011;24008;42.664;23.372;2024-03-29T10:52:50;0.93;;;0.50;;
6135;SDS011;24008;42.664;23.372;2024-03-29T10:55:17;2.03;;;0.60;;
6135;SDS011;24008;42.664;23.372;2024-03-29T10:57:45;4.28;;;0.90;;
6135;SDS011;24008;42.664;23.372;2024-03-29T11:00:15;0.98;;;0.40;;
6135;SDS011;24008;42.664;23.372;2024-03-29T11:02:48;2.17;;;0.60;;
6135;SDS011;24008;42.664;23.372;2024-03-29T11:05:16;1.90;;;0.40;;
6135;SDS011;24008;42.664;23.372;2024-03-29T11:07:42;2.65;;;0.60;;
6135;SDS011;24008;42.664;23.372;2024-03-29T11:10:13;1.05;;;0.43;;
6135;SDS011;24008;42.664;23.372;2024-03-29T11:12:47;2.53;;;0.57;;
6135;SDS011;24008;42.664;23.372;2024-03-29T11:15:27;1.45;;;0.63;;
6135;SDS011;24008;42.664;23.372;2024-03-29T11:17:55;1.70;;;0.50;;
6135;SDS011;24008;42.664;23.372;2024-03-29T11:20:23;1.60;;;0.77;;
6135;SDS011;24008;42.664;23.372;2024-03-29T11:22:59;1.52;;;0.73;;
6135;SDS011;24008;42.664;23.372;2024-03-29T11:25:40;1.95;;;0.50;;
6135;SDS011;24008;42.664;23.372;2024-03-29T11:28:09;0.93;;;0.50;;
6135;SDS011;24008;42.664;23.372;2024-03-29T11:30:42;1.38;;;0.60;;
6135;SDS011;24008;42.664;23.372;2024-03-29T11:33:30;2.22;;;0.65;;
6135;SDS011;24008;42.664;23.372;2024-03-29T11:35:59;1.10;;;0.60;;
6135;SDS011;24008;42.664;23.372;2024-03-29T11:38:30;1.55;;;0.70;;
6135;SDS011;24008;42.664;23.372;2024-03-29T11:41:01;3.47;;;0.98;;
6135;SDS011;24008;42.664;23.372;2024-03-29T11:43:33;1.90;;;0.60;;
6135;SDS011;24008;42.664;23.372;2024-03-29T11:46:01;1.85;;;0.35;;
6135;SDS011;24008;42.664;23.372;2024-03-29T11:48:31;1.85;;;0.50;;
6135;SDS011;24008;42.664;23.372;2024-03-29T11:50:58;1.58;;;0.50;;
6135;SDS011;24008;42.664;23.372;2024-03-29T11:53:26;1.08;;;0.50;;
6135;SDS011;24008;42.664;23.372;2024-03-29T11:55:54;1.42;;;0.43;;
6135;SDS011;24008;42.664;23.372;2024-03-29T11:58:21;2.50;;;0.70;;
6135;SDS011;24008;42.664;23.372;2024-03-29T12:00:50;1.85;;;0.73;;
6135;SDS011;24008;42.664;23.372;2024-03-29T12:03:18;1.25;;;0.75;;
6135;SDS011;24008;42.664;23.372;2024-03-29T12:05:47;2.42;;;0.70;;
6135;SDS011;24008;42.664;23.372;2024-03-29T12:08:15;1.45;;;0.70;;
6135;SDS011;24008;42.664;23.372;2024-03-29T12:10:42;0.90;;;0.55;;
6135;SDS011;24008;42.664;23.372;2024-03-29T12:13:10;1.88;;;0.80;;
6135;SDS011;24008;42.664;23.372;2024-03-29T12:15:39;1.63;;;0.80;;
6135;SDS011;24008;42.664;23.372;2024-03-29T12:18:08;0.98;;;0.60;;
6135;SDS011;24008;42.664;23.372;2024-03-29T12:20:35;3.05;;;1.05;;
6135;SDS011;24008;42.664;23.372;2024-03-29T12:23:03;1.58;;;0.70;;
6135;SDS011;24008;42.664;23.372;2024-03-29T12:25:31;4.20;;;0.68;;
6135;SDS011;24008;42.664;23.372;2024-03-29T12:27:59;1.15;;;0.60;;
6135;SDS011;24008;42.664;23.372;2024-03-29T12:30:26;2.30;;;0.70;;
6135;SDS011;24008;42.664;23.372;2024-03-29T12:33:03;1.73;;;0.70;;
6135;SDS011;24008;42.664;23.372;2024-03-29T12:35:34;1.63;;;0.70;;
6135;SDS011;24008;42.664;23.372;2024-03-29T12:38:02;1.88;;;0.73;;
6135;SDS011;24008;42.664;23.372;2024-03-29T12:40:30;1.00;;;0.55;;
6135;SDS011;24008;42.664;23.372;2024-03-29T12:43:02;1.58;;;0.43;;
6135;SDS011;24008;42.664;23.372;2024-03-29T12:45:30;2.15;;;0.70;;
6135;SDS011;24008;42.664;23.372;2024-03-29T12:47:56;1.50;;;0.65;;
6135;SDS011;24008;42.664;23.372;2024-03-29T12:50:26;2.83;;;0.68;;
6135;SDS011;24008;42.664;23.372;2024-03-29T12:52:56;3.05;;;0.82;;
6135;SDS011;24008;42.664;23.372;2024-03-29T12:55:24;3.38;;;0.70;;
6135;SDS011;24008;42.664;23.372;2024-03-29T12:57:55;2.65;;;0.60;;
6135;SDS011;24008;42.664;23.372;2024-03-29T13:00:22;1.73;;;0.70;;
6135;SDS011;24008;42.664;23.372;2024-03-29T13:02:49;1.98;;;0.52;;
6135;SDS011;24008;42.664;23.372;2024-03-29T13:05:16;4.57;;;0.70;;
6135;SDS011;24008;42.664;23.372;2024-03-29T13:07:43;1.35;;;0.50;;
6135;SDS011;24008;42.664;23.372;2024-03-29T13:10:11;1.80;;;0.50;;
6135;SDS011;24008;42.664;23.372;2024-03-29T13:12:40;3.22;;;0.50;;
6135;SDS011;24008;42.664;23.372;2024-03-29T13:15:14;1.10;;;0.50;;
6135;SDS011;24008;42.664;23.372;2024-03-29T13:17:42;0.70;;;0.40;;
6135;SDS011;24008;42.664;23.372;2024-03-29T13:20:15;5.30;;;0.60;;
6135;SDS011;24008;42.664;23.372;2024-03-29T13:22:42;2.70;;;0.75;;
6135;SDS011;24008;42.664;23.372;2024-03-29T13:25:12;0.57;;;0.40;;
6135;SDS011;24008;42.664;23.372;2024-03-29T13:27:39;2.03;;;0.47;;
6135;SDS011;24008;42.664;23.372;2024-03-29T13:30:08;2.03;;;0.57;;
6135;SDS011;24008;42.664;23.372;2024-03-29T13:32:37;2.45;;;0.80;;
6135;SDS011;24008;42.664;23.372;2024-03-29T13:35:05;2.75;;;0.80;;
6135;SDS011;24008;42.664;23.372;2024-03-29T13:37:34;2.00;;;0.63;;
6135;SDS011;24008;42.664;23.372;2024-03-29T13:40:01;0.82;;;0.50;;
6135;SDS011;24008;42.664;23.372;2024-03-29T13:42:30;1.42;;;0.57;;
6135;SDS011;24008;42.664;23.372;2024-03-29T13:44:57;2.05;;;0.80;;
6135;SDS011;24008;42.664;23.372;2024-03-29T13:47:24;0.88;;;0.50;;
6135;SDS011;24008;42.664;23.372;2024-03-29T13:49:50;2.45;;;0.73;;
6135;SDS011;24008;42.664;23.372;2024-03-29T13:52:19;2.60;;;0.57;;
6135;SDS011;24008;42.664;23.372;2024-03-29T13:54:46;1.88;;;0.50;;
6135;SDS011;24008;42.664;23.372;2024-03-29T13:57:13;1.98;;;0.55;;
6135;SDS011;24008;42.664;23.372;2024-03-29T13:59:41;0.88;;;0.60;;
6135;SDS011;24008;42.664;23.372;2024-03-29T14:02:11;2.72;;;0.65;;
6135;SDS011;24008;42.664;23.372;2024-03-29T14:04:38;0.60;;;0.40;;
6135;SDS011;24008;42.664;23.372;2024-03-29T14:07:05;0.75;;;0.40;;
6135;SDS011;24008;42.664;23.372;2024-03-29T14:09:33;0.70;;;0.40;;
6135;SDS011;24008;42.664;23.372;2024-03-29T14:12:00;2.05;;;0.70;;
6135;SDS011;24008;42.664;23.372;2024-03-29T14:14:28;1.05;;;0.50;;
6135;SDS011;24008;42.664;23.372;2024-03-29T14:17:01;0.60;;;0.32;;
6135;SDS011;24008;42.664;23.372;2024-03-29T14:19:29;2.88;;;0.50;;
6135;SDS011;24008;42.664;23.372;2024-03-29T14:21:56;2.92;;;0.50;;
6135;SDS011;24008;42.664;23.372;2024-03-29T14:24:23;1.58;;;0.65;;
6135;SDS011;24008;42.664;23.372;2024-03-29T14:26:52;1.08;;;0.40;;
6135;SDS011;24008;42.664;23.372;2024-03-29T14:29:19;1.27;;;0.50;;
6135;SDS011;24008;42.664;23.372;2024-03-29T14:31:46;1.13;;;0.50;;
6135;SDS011;24008;42.664;23.372;2024-03-29T14:34:14;0.55;;;0.43;;
6135;SDS011;24008;42.664;23.372;2024-03-29T14:36:41;1.08;;;0.47;;
6135;SDS011;24008;42.664;23.372;2024-03-29T14:39:08;1.10;;;0.43;;
6135;SDS011;24008;42.664;23.372;2024-03-29T14:41:37;2.70;;;0.60;;
6135;SDS011;24008;42.664;23.372;2024-03-29T14:44:04;2.15;;;0.52;;
6135;SDS011;24008;42.664;23.372;2024-03-29T14:46:32;0.60;;;0.50;;
6135;SDS011;24008;42.664;23.372;2024-03-29T14:48:59;2.30;;;0.55;;
6135;SDS011;24008;42.664;23.372;2024-03-29T14:51:27;0.50;;;0.32;;